createdAt,value
2018-09-22T00:00:10.075Z,79.20
2018-09-22T00:01:10.131Z,79.20
2018-09-22T00:02:10.195Z,79.29
2018-09-22T00:03:10.263Z,79.29
2018-09-22T00:04:10.415Z,79.58
2018-09-22T00:05:10.383Z,79.10
2018-09-22T00:06:10.456Z,79.00
2018-09-22T00:07:10.507Z,79.39
2018-09-22T00:08:10.579Z,79.20
2018-09-22T00:09:10.651Z,79.39
2018-09-22T00:10:10.707Z,79.10
2018-09-22T00:11:10.760Z,79.77
2018-09-22T00:12:10.823Z,79.25
2018-09-22T00:13:10.884Z,79.73
2018-09-22T00:14:10.956Z,79.93
2018-09-22T00:15:11.020Z,79.73
2018-09-22T00:16:11.075Z,80.21
2018-09-22T00:17:11.136Z,80.40
2018-09-22T00:18:11.199Z,80.40
2018-09-22T00:19:11.528Z,80.50
2018-09-22T00:20:11.328Z,80.98
2018-09-22T00:21:11.387Z,80.59
2018-09-22T00:22:11.452Z,80.30
2018-09-22T00:23:11.517Z,80.59
2018-09-22T00:24:11.584Z,80.69
2018-09-22T00:25:11.644Z,81.26
2018-09-22T00:26:11.711Z,80.69
2018-09-22T00:27:11.766Z,80.50
2018-09-22T00:28:11.828Z,80.59
2018-09-22T00:29:11.930Z,80.69
2018-09-22T00:30:11.970Z,79.93
2018-09-22T00:31:12.021Z,80.30
2018-09-22T00:32:12.080Z,79.93
2018-09-22T00:33:12.141Z,80.40
2018-09-22T00:34:12.205Z,81.16
2018-09-22T00:35:12.361Z,81.26
2018-09-22T00:36:12.328Z,81.36
2018-09-22T00:37:12.393Z,82.79
2018-09-22T00:38:12.461Z,82.70
2018-09-22T00:39:12.518Z,82.70
2018-09-22T00:40:12.589Z,83.08
2018-09-22T00:41:12.649Z,82.98
2018-09-22T00:42:12.705Z,82.60
2018-09-22T00:43:12.769Z,82.22
2018-09-22T00:44:12.833Z,82.31
2018-09-22T00:45:12.901Z,82.51
2018-09-22T00:46:12.964Z,82.12
2018-09-22T00:47:13.025Z,82.41
2018-09-22T00:48:13.081Z,82.60
2018-09-22T00:49:13.144Z,82.41
2018-09-22T00:50:13.492Z,81.93
2018-09-22T00:51:13.273Z,81.93
2018-09-22T00:52:13.333Z,81.65
2018-09-22T00:53:13.400Z,82.12
2018-09-22T00:54:13.461Z,81.93
2018-09-22T00:55:13.529Z,81.36
2018-09-22T00:56:13.593Z,81.45
2018-09-22T00:57:13.649Z,81.45
2018-09-22T00:58:13.713Z,81.55
2018-09-22T00:59:13.773Z,81.55
2018-09-22T01:00:13.845Z,81.36
2018-09-22T01:01:13.912Z,81.36
2018-09-22T01:02:13.961Z,81.36
2018-09-22T01:03:14.026Z,81.84
2018-09-22T01:04:14.090Z,81.74
2018-09-22T01:05:14.509Z,81.74
2018-09-22T01:06:14.214Z,81.65
2018-09-22T01:07:14.277Z,82.22
2018-09-22T01:08:14.341Z,82.22
2018-09-22T01:09:14.402Z,82.79
2018-09-22T01:10:14.468Z,82.12
2018-09-22T01:11:14.794Z,82.79
2018-09-22T01:12:14.590Z,81.93
2018-09-22T01:13:14.650Z,82.31
2018-09-22T01:14:14.714Z,82.70
2018-09-22T01:15:14.780Z,82.60
2018-09-22T01:16:14.846Z,82.98
2018-09-22T01:17:14.910Z,82.60
2018-09-22T01:18:14.966Z,82.70
2018-09-22T01:19:15.034Z,82.60
2018-09-22T01:20:15.090Z,82.79
2018-09-22T01:21:15.246Z,82.79
2018-09-22T01:22:15.219Z,82.60
2018-09-22T01:23:15.278Z,82.79
2018-09-22T01:24:15.345Z,82.60
2018-09-22T01:25:15.410Z,82.22
2018-09-22T01:26:15.474Z,82.70
2018-09-22T01:27:15.538Z,82.41
2018-09-22T01:28:15.595Z,82.89
2018-09-22T01:29:15.654Z,82.89
2018-09-22T01:30:15.718Z,82.98
2018-09-22T01:31:15.795Z,82.70
2018-09-22T01:32:15.851Z,82.79
2018-09-22T01:33:15.906Z,82.60
2018-09-22T01:34:15.970Z,82.37
2018-09-22T01:35:16.035Z,82.84
2018-09-22T01:36:16.202Z,83.51
2018-09-22T01:37:16.159Z,83.99
2018-09-22T01:38:16.227Z,84.19
2018-09-22T01:39:16.284Z,83.99
2018-09-22T01:40:16.347Z,83.99
2018-09-22T01:41:16.415Z,84.28
2018-09-22T01:42:16.485Z,84.47
2018-09-22T01:43:16.536Z,84.76
2018-09-22T01:44:16.599Z,84.38
2018-09-22T01:45:16.660Z,84.09
2018-09-22T01:46:16.731Z,84.28
2018-09-22T01:47:16.800Z,84.66
2018-09-22T01:48:16.847Z,84.66
2018-09-22T01:49:16.913Z,84.47
2018-09-22T01:50:16.975Z,84.95
2018-09-22T01:51:17.047Z,84.95
2018-09-22T01:52:17.112Z,84.66
2018-09-22T01:53:17.159Z,84.47
2018-09-22T01:54:17.223Z,84.76
2018-09-22T01:55:17.287Z,84.95
2018-09-22T01:56:17.357Z,84.76
2018-09-22T01:57:17.424Z,84.85
2018-09-22T01:58:17.476Z,84.38
2018-09-22T01:59:17.535Z,84.85
2018-09-22T02:00:17.600Z,84.66
2018-09-22T02:01:17.671Z,84.85
2018-09-22T02:02:17.732Z,84.56
2018-09-22T02:03:17.788Z,84.19
2018-09-22T02:04:17.852Z,84.19
2018-09-22T02:05:17.912Z,84.28
2018-09-22T02:06:17.984Z,84.76
2018-09-22T02:07:18.056Z,84.38
2018-09-22T02:08:18.104Z,84.85
2018-09-22T02:09:18.164Z,85.14
2018-09-22T02:10:18.230Z,85.05
2018-09-22T02:11:18.288Z,84.95
2018-09-22T02:12:18.620Z,85.24
2018-09-22T02:13:18.420Z,85.81
2018-09-22T02:14:18.484Z,85.33
2018-09-22T02:15:18.540Z,85.42
2018-09-22T02:16:18.604Z,85.71
2018-09-22T02:17:18.676Z,86.38
2018-09-22T02:18:18.740Z,86.82
2018-09-22T02:19:18.793Z,86.43
2018-09-22T02:20:18.852Z,86.43
2018-09-22T02:21:18.916Z,87.01
2018-09-22T02:22:18.985Z,86.43
2018-09-22T02:23:19.049Z,86.72
2018-09-22T02:24:19.104Z,86.43
2018-09-22T02:25:19.166Z,86.82
2018-09-22T02:26:19.236Z,86.72
2018-09-22T02:27:19.561Z,87.01
2018-09-22T02:28:19.357Z,87.48
2018-09-22T02:29:19.417Z,87.39
2018-09-22T02:30:19.481Z,86.91
2018-09-22T02:31:19.541Z,87.10
2018-09-22T02:32:19.613Z,87.20
2018-09-22T02:33:19.675Z,87.20
2018-09-22T02:34:19.732Z,87.29
2018-09-22T02:35:19.793Z,87.29
2018-09-22T02:36:19.862Z,87.77
2018-09-22T02:37:19.925Z,87.68
2018-09-22T02:38:19.986Z,87.20
2018-09-22T02:39:20.065Z,87.20
2018-09-22T02:40:20.109Z,86.91
2018-09-22T02:41:20.169Z,87.10
2018-09-22T02:42:20.245Z,87.58
2018-09-22T02:43:20.293Z,87.39
2018-09-22T02:44:20.356Z,87.20
2018-09-22T02:45:20.417Z,87.10
2018-09-22T02:46:20.481Z,87.24
2018-09-22T02:47:20.557Z,86.91
2018-09-22T02:48:20.613Z,86.96
2018-09-22T02:49:20.669Z,86.82
2018-09-22T02:50:20.729Z,87.15
2018-09-22T02:51:20.793Z,86.76
2018-09-22T02:52:20.865Z,86.82
2018-09-22T02:53:20.926Z,87.29
2018-09-22T02:54:20.981Z,87.29
2018-09-22T02:55:21.045Z,87.05
2018-09-22T02:56:21.105Z,86.91
2018-09-22T02:57:21.197Z,86.86
2018-09-22T02:58:21.235Z,87.15
2018-09-22T02:59:21.294Z,86.86
2018-09-22T03:00:21.359Z,86.63
2018-09-22T03:01:21.418Z,86.72
2018-09-22T03:02:21.490Z,87.58
2018-09-22T03:03:21.550Z,87.15
2018-09-22T03:04:21.606Z,87.10
2018-09-22T03:05:21.670Z,87.72
2018-09-22T03:06:21.730Z,87.68
2018-09-22T03:07:21.802Z,87.77
2018-09-22T03:08:21.867Z,87.39
2018-09-22T03:09:21.919Z,87.48
2018-09-22T03:10:21.982Z,87.77
2018-09-22T03:11:22.079Z,87.77
2018-09-22T03:12:22.203Z,88.25
2018-09-22T03:13:22.175Z,88.06
2018-09-22T03:14:22.235Z,89.01
2018-09-22T03:15:22.329Z,89.11
2018-09-22T03:16:22.358Z,89.01
2018-09-22T03:17:22.431Z,89.01
2018-09-22T03:18:22.491Z,89.20
2018-09-22T03:19:22.548Z,89.39
2018-09-22T03:20:22.611Z,90.06
2018-09-22T03:21:22.670Z,89.97
2018-09-22T03:22:22.741Z,89.39
2018-09-22T03:23:22.803Z,89.87
2018-09-22T03:24:22.862Z,89.97
2018-09-22T03:25:22.927Z,89.97
2018-09-22T03:26:22.983Z,89.87
2018-09-22T03:27:23.056Z,89.68
2018-09-22T03:28:23.115Z,90.54
2018-09-22T03:29:23.171Z,90.45
2018-09-22T03:30:23.235Z,90.45
2018-09-22T03:31:23.299Z,90.45
2018-09-22T03:32:23.367Z,90.31
2018-09-22T03:33:23.427Z,90.73
2018-09-22T03:34:23.486Z,90.16
2018-09-22T03:35:23.549Z,91.21
2018-09-22T03:36:23.611Z,90.73
2018-09-22T03:37:23.680Z,90.45
2018-09-22T03:38:23.743Z,91.21
2018-09-22T03:39:23.803Z,90.73
2018-09-22T03:40:23.860Z,90.54
2018-09-22T03:41:23.924Z,90.45
2018-09-22T03:42:23.992Z,89.87
2018-09-22T03:43:24.056Z,89.78
2018-09-22T03:44:24.112Z,89.87
2018-09-22T03:45:24.172Z,89.78
2018-09-22T03:46:24.236Z,89.30
2018-09-22T03:47:24.300Z,88.92
2018-09-22T03:48:24.463Z,89.11
2018-09-22T03:49:24.424Z,89.39
2018-09-22T03:50:24.484Z,89.20
2018-09-22T03:51:24.548Z,89.59
2018-09-22T03:52:24.612Z,89.87
2018-09-22T03:53:24.683Z,89.49
2018-09-22T03:54:24.744Z,89.39
2018-09-22T03:55:24.800Z,89.01
2018-09-22T03:56:24.860Z,89.01
2018-09-22T03:57:24.925Z,88.92
2018-09-22T03:58:24.996Z,89.01
2018-09-22T03:59:25.056Z,89.01
2018-09-22T04:00:25.115Z,89.30
2018-09-22T04:01:25.184Z,89.01
2018-09-22T04:02:25.236Z,88.54
2018-09-22T04:03:25.300Z,88.73
2018-09-22T04:04:25.632Z,88.34
2018-09-22T04:05:25.424Z,87.87
2018-09-22T04:06:25.488Z,87.96
2018-09-22T04:07:25.560Z,88.25
2018-09-22T04:08:25.612Z,88.34
2018-09-22T04:09:25.681Z,88.44
2018-09-22T04:10:25.791Z,88.73
2018-09-22T04:11:25.802Z,88.63
2018-09-22T04:12:25.864Z,88.82
2018-09-22T04:13:25.953Z,88.25
2018-09-22T04:14:25.997Z,88.54
2018-09-22T04:15:26.057Z,89.01
2018-09-22T04:16:26.116Z,88.73
2018-09-22T04:17:26.181Z,88.25
2018-09-22T04:18:26.245Z,88.44
2018-09-22T04:19:26.715Z,88.92
2018-09-22T04:20:26.365Z,88.54
2018-09-22T04:21:26.426Z,88.73
2018-09-22T04:22:26.489Z,88.34
2018-09-22T04:23:26.561Z,88.54
2018-09-22T04:24:26.613Z,88.54
2018-09-22T04:25:26.781Z,88.63
2018-09-22T04:26:26.737Z,88.82
2018-09-22T04:27:26.806Z,89.30
2018-09-22T04:28:26.865Z,89.30
2018-09-22T04:29:26.925Z,88.92
2018-09-22T04:30:27.001Z,89.20
2018-09-22T04:31:27.059Z,89.01
2018-09-22T04:32:27.115Z,88.92
2018-09-22T04:33:27.237Z,89.39
2018-09-22T04:34:27.238Z,89.64
2018-09-22T04:35:27.302Z,89.73
2018-09-22T04:36:27.562Z,89.92
2018-09-22T04:37:27.426Z,89.45
2018-09-22T04:38:27.493Z,89.97
2018-09-22T04:39:27.554Z,89.73
2018-09-22T04:40:27.614Z,89.78
2018-09-22T04:41:27.686Z,89.92
2018-09-22T04:42:27.746Z,89.59
2018-09-22T04:43:27.801Z,89.87
2018-09-22T04:44:27.866Z,89.01
2018-09-22T04:45:27.925Z,89.39
2018-09-22T04:46:28.003Z,89.97
2018-09-22T04:47:28.058Z,89.59
2018-09-22T04:48:28.113Z,89.78
2018-09-22T04:49:28.178Z,89.59
2018-09-22T04:50:28.242Z,89.59
2018-09-22T04:51:28.302Z,89.16
2018-09-22T04:52:28.635Z,88.82
2018-09-22T04:53:28.430Z,89.45
2018-09-22T04:54:28.493Z,89.59
2018-09-22T04:55:28.554Z,90.02
2018-09-22T04:56:28.615Z,89.49
2018-09-22T04:57:28.683Z,89.30
2018-09-22T04:58:28.746Z,89.35
2018-09-22T04:59:28.808Z,89.64
2018-09-22T05:00:28.866Z,88.92
2018-09-22T05:01:28.927Z,89.92
2018-09-22T05:02:28.999Z,89.97
2018-09-22T05:03:29.062Z,90.06
2018-09-22T05:04:29.115Z,90.35
2018-09-22T05:05:29.179Z,90.35
2018-09-22T05:06:29.238Z,89.97
2018-09-22T05:07:29.302Z,89.73
2018-09-22T05:08:29.471Z,89.83
2018-09-22T05:09:29.431Z,90.21
2018-09-22T05:10:29.490Z,90.11
2018-09-22T05:11:29.551Z,89.92
2018-09-22T05:12:29.615Z,90.31
2018-09-22T05:13:29.683Z,90.50
2018-09-22T05:14:29.747Z,90.31
2018-09-22T05:15:29.803Z,90.31
2018-09-22T05:16:29.867Z,90.11
2018-09-22T05:17:29.927Z,90.40
2018-09-22T05:18:29.995Z,90.97
2018-09-22T05:19:30.059Z,90.31
2018-09-22T05:20:30.115Z,90.50
2018-09-22T05:21:30.179Z,91.45
2018-09-22T05:22:30.239Z,90.69
2018-09-22T05:23:30.304Z,90.88
2018-09-22T05:24:30.391Z,91.26
2018-09-22T05:25:30.428Z,91.26
2018-09-22T05:26:30.496Z,91.16
2018-09-22T05:27:30.551Z,91.64
2018-09-22T05:28:30.616Z,90.97
2018-09-22T05:29:30.683Z,91.55
2018-09-22T05:30:30.748Z,91.36
2018-09-22T05:31:30.804Z,91.55
2018-09-22T05:32:30.864Z,91.16
2018-09-22T05:33:30.966Z,91.36
2018-09-22T05:34:30.996Z,91.55
2018-09-22T05:35:31.087Z,91.26
2018-09-22T05:36:31.116Z,90.97
2018-09-22T05:37:31.177Z,91.36
2018-09-22T05:38:31.245Z,91.26
2018-09-22T05:39:31.305Z,91.16
2018-09-22T05:40:31.464Z,91.93
2018-09-22T05:41:31.458Z,91.36
2018-09-22T05:42:31.488Z,91.26
2018-09-22T05:43:31.556Z,91.55
2018-09-22T05:44:31.620Z,90.59
2018-09-22T05:45:31.684Z,91.74
2018-09-22T05:46:31.748Z,91.36
2018-09-22T05:47:31.804Z,91.55
2018-09-22T05:48:31.861Z,91.55
2018-09-22T05:49:31.928Z,91.16
2018-09-22T05:50:31.996Z,91.16
2018-09-22T05:51:32.061Z,91.36
2018-09-22T05:52:32.168Z,91.36
2018-09-22T05:53:32.189Z,90.78
2018-09-22T05:54:32.241Z,91.74
2018-09-22T05:55:32.304Z,91.50
2018-09-22T05:56:32.632Z,91.16
2018-09-22T05:57:32.428Z,91.83
2018-09-22T05:58:32.492Z,91.36
2018-09-22T05:59:32.553Z,91.64
2018-09-22T06:00:32.617Z,91.78
2018-09-22T06:01:32.685Z,91.93
2018-09-22T06:02:32.746Z,91.50
2018-09-22T06:03:32.813Z,91.74
2018-09-22T06:04:32.866Z,91.55
2018-09-22T06:05:32.929Z,90.83
2018-09-22T06:06:32.997Z,91.40
2018-09-22T06:07:33.061Z,91.50
2018-09-22T06:08:33.117Z,91.59
2018-09-22T06:09:33.216Z,91.11
2018-09-22T06:10:33.241Z,90.54
2018-09-22T06:11:33.426Z,90.06
2018-09-22T06:12:33.369Z,90.54
2018-09-22T06:13:33.429Z,90.25
2018-09-22T06:14:33.493Z,89.87
2018-09-22T06:15:33.558Z,90.16
2018-09-22T06:16:33.625Z,89.68
2018-09-22T06:17:33.686Z,89.30
2018-09-22T06:18:33.742Z,89.73
2018-09-22T06:19:33.813Z,89.39
2018-09-22T06:20:33.870Z,90.20
2018-09-22T06:21:33.938Z,88.96
2018-09-22T06:22:34.000Z,89.34
2018-09-22T06:23:34.116Z,88.96
2018-09-22T06:24:34.124Z,88.68
2018-09-22T06:25:34.182Z,88.48
2018-09-22T06:26:34.242Z,88.68
2018-09-22T06:27:34.330Z,89.15
2018-09-22T06:28:34.370Z,88.96
2018-09-22T06:29:34.436Z,88.68
2018-09-22T06:30:34.494Z,88.96
2018-09-22T06:31:34.558Z,88.48
2018-09-22T06:32:34.626Z,88.96
2018-09-22T06:33:34.690Z,88.87
2018-09-22T06:34:34.751Z,89.25
2018-09-22T06:35:34.810Z,88.20
2018-09-22T06:36:34.871Z,88.48
2018-09-22T06:37:35.030Z,88.77
2018-09-22T06:38:35.006Z,88.96
2018-09-22T06:39:35.058Z,87.72
2018-09-22T06:40:35.123Z,88.01
2018-09-22T06:41:35.186Z,87.62
2018-09-22T06:42:35.275Z,87.72
2018-09-22T06:43:35.310Z,87.62
2018-09-22T06:44:35.375Z,87.62
2018-09-22T06:45:35.439Z,87.91
2018-09-22T06:46:35.501Z,87.24
2018-09-22T06:47:35.571Z,87.15
2018-09-22T06:48:35.635Z,87.66
2018-09-22T06:49:35.689Z,87.43
2018-09-22T06:50:35.751Z,87.48
2018-09-22T06:51:35.815Z,87.00
2018-09-22T06:52:35.887Z,87.19
2018-09-22T06:53:35.952Z,87.48
2018-09-22T06:54:36.003Z,87.86
2018-09-22T06:55:36.067Z,87.48
2018-09-22T06:56:36.132Z,87.86
2018-09-22T06:57:36.287Z,87.48
2018-09-22T06:58:36.255Z,87.38
2018-09-22T06:59:36.319Z,87.66
2018-09-22T07:00:36.383Z,87.19
2018-09-22T07:01:36.446Z,86.90
2018-09-22T07:02:36.519Z,86.71
2018-09-22T07:03:36.583Z,86.61
2018-09-22T07:04:36.635Z,86.90
2018-09-22T07:05:36.699Z,86.43
2018-09-22T07:06:36.760Z,86.43
2018-09-22T07:07:36.836Z,86.23
2018-09-22T07:08:36.895Z,86.14
2018-09-22T07:09:36.948Z,86.14
2018-09-22T07:10:37.022Z,86.18
2018-09-22T07:11:37.076Z,85.71
2018-09-22T07:12:37.139Z,85.71
2018-09-22T07:13:37.261Z,84.65
2018-09-22T07:14:37.264Z,85.41
2018-09-22T07:15:37.328Z,84.36
2018-09-22T07:16:37.391Z,83.54
2018-09-22T07:17:37.456Z,83.12
2018-09-22T07:18:37.530Z,83.64
2018-09-22T07:19:37.663Z,83.22
2018-09-22T07:20:37.644Z,83.36
2018-09-22T07:21:37.708Z,83.16
2018-09-22T07:22:37.772Z,82.97
2018-09-22T07:23:37.844Z,82.97
2018-09-22T07:24:37.904Z,83.69
2018-09-22T07:25:37.960Z,82.93
2018-09-22T07:26:38.024Z,83.50
2018-09-22T07:27:38.088Z,83.31
2018-09-22T07:28:38.152Z,83.45
2018-09-22T07:29:38.256Z,83.64
2018-09-22T07:30:38.288Z,84.08
2018-09-22T07:31:38.345Z,83.93
2018-09-22T07:32:38.413Z,83.40
2018-09-22T07:33:38.471Z,84.27
2018-09-22T07:34:38.545Z,84.46
2018-09-22T07:35:38.604Z,84.17
2018-09-22T07:36:38.661Z,84.17
2018-09-22T07:37:38.728Z,84.46
2018-09-22T07:38:38.789Z,84.17
2018-09-22T07:39:38.870Z,83.93
2018-09-22T07:40:38.929Z,83.64
2018-09-22T07:41:38.980Z,84.12
2018-09-22T07:42:39.040Z,83.93
2018-09-22T07:43:39.105Z,83.26
2018-09-22T07:44:39.185Z,82.87
2018-09-22T07:45:39.264Z,82.97
2018-09-22T07:46:39.297Z,82.87
2018-09-22T07:47:39.361Z,83.16
2018-09-22T07:48:39.436Z,82.78
2018-09-22T07:49:39.493Z,81.67
2018-09-22T07:50:39.558Z,81.20
2018-09-22T07:51:39.614Z,81.00
2018-09-22T07:52:39.678Z,80.90
2018-09-22T07:53:39.746Z,80.33
2018-09-22T07:54:39.821Z,80.24
2018-09-22T07:55:39.878Z,80.62
2018-09-22T07:56:39.934Z,80.43
2018-09-22T07:57:39.998Z,81.33
2018-09-22T07:58:40.062Z,79.47
2018-09-22T07:59:40.126Z,79.99
2018-09-22T08:00:40.218Z,79.03
2018-09-22T08:01:40.270Z,79.03
2018-09-22T08:02:40.318Z,78.97
2018-09-22T08:03:40.382Z,78.59
2018-09-22T08:04:40.446Z,78.30
2018-09-22T08:05:40.518Z,78.30
2018-09-22T08:06:40.586Z,77.82
2018-09-22T08:07:40.638Z,77.63
2018-09-22T08:08:40.702Z,77.88
2018-09-22T08:09:40.766Z,77.97
2018-09-22T08:10:40.838Z,79.03
2018-09-22T08:11:40.947Z,79.03
2018-09-22T08:12:40.958Z,78.45
2018-09-22T08:13:41.025Z,78.93
2018-09-22T08:14:41.093Z,78.64
2018-09-22T08:15:41.242Z,78.84
2018-09-22T08:16:41.219Z,78.27
2018-09-22T08:17:41.279Z,78.49
2018-09-22T08:18:41.350Z,77.34
2018-09-22T08:19:41.411Z,76.39
2018-09-22T08:20:41.529Z,76.96
2018-09-22T08:21:41.546Z,77.15
2018-09-22T08:22:41.606Z,77.15
2018-09-22T08:23:41.666Z,77.44
2018-09-22T08:24:41.731Z,77.15
2018-09-22T08:25:41.806Z,77.31
2018-09-22T08:26:41.867Z,77.34
2018-09-22T08:27:41.928Z,77.53
2018-09-22T08:28:41.991Z,78.11
2018-09-22T08:29:42.056Z,77.25
2018-09-22T08:30:42.359Z,78.20
2018-09-22T08:31:42.186Z,77.92
2018-09-22T08:32:42.247Z,77.15
2018-09-22T08:33:42.312Z,77.44
2018-09-22T08:34:42.375Z,77.44
2018-09-22T08:35:42.485Z,77.53
2018-09-22T08:36:42.663Z,77.73
2018-09-22T08:37:42.567Z,77.15
2018-09-22T08:38:42.636Z,76.86
2018-09-22T08:39:42.699Z,77.25
2018-09-22T08:40:42.773Z,77.15
2018-09-22T08:41:42.835Z,78.11
2018-09-22T08:42:42.892Z,77.73
2018-09-22T08:43:42.978Z,77.73
2018-09-22T08:44:43.059Z,76.57
2018-09-22T08:45:43.108Z,76.00
2018-09-22T08:46:43.147Z,75.65
2018-09-22T08:47:43.212Z,75.65
2018-09-22T08:48:43.280Z,75.27
2018-09-22T08:49:43.426Z,74.69
2018-09-22T08:50:43.412Z,74.79
2018-09-22T08:51:43.480Z,74.89
2018-09-22T08:52:43.536Z,74.44
2018-09-22T08:53:43.600Z,74.39
2018-09-22T08:54:43.670Z,73.08
2018-09-22T08:55:43.736Z,72.64
2018-09-22T08:56:43.804Z,69.98
2018-09-22T08:57:43.913Z,68.80
2018-09-22T08:58:43.924Z,66.39
2018-09-22T08:59:43.992Z,66.20
2018-09-22T09:00:44.064Z,65.17
2018-09-22T09:01:44.129Z,63.67
2018-09-22T09:02:44.188Z,62.70
2018-09-22T09:03:44.252Z,62.25
2018-09-22T09:04:44.321Z,60.61
2018-09-22T09:05:44.520Z,60.90
2018-09-22T09:06:44.460Z,60.74
2018-09-22T09:07:44.524Z,60.26
2018-09-22T09:08:44.585Z,59.68
2018-09-22T09:09:44.656Z,59.00
2018-09-22T09:10:44.725Z,58.52
2018-09-22T09:11:44.793Z,58.14
2018-09-22T09:12:44.853Z,58.91
2018-09-22T09:13:44.981Z,58.78
2018-09-22T09:14:45.010Z,58.47
2018-09-22T09:15:45.061Z,59.62
2018-09-22T09:16:45.133Z,60.46
2018-09-22T09:17:45.189Z,61.10
2018-09-22T09:18:45.257Z,61.13
2018-09-22T09:19:45.328Z,60.36
2018-09-22T09:20:45.445Z,59.91
2018-09-22T09:21:45.465Z,59.88
2018-09-22T09:22:45.525Z,60.94
2018-09-22T09:23:45.593Z,59.81
2018-09-22T09:24:45.664Z,60.00
2018-09-22T09:25:45.733Z,58.97
2018-09-22T09:26:45.801Z,58.30
2018-09-22T09:27:45.861Z,58.01
2018-09-22T09:28:45.934Z,58.11
2018-09-22T09:29:45.993Z,57.53
2018-09-22T09:30:46.069Z,57.62
2018-09-22T09:31:46.143Z,56.98
2018-09-22T09:32:46.197Z,55.92
2018-09-22T09:33:46.266Z,55.66
2018-09-22T09:34:46.334Z,56.30
2018-09-22T09:35:46.406Z,57.37
2018-09-22T09:36:46.478Z,56.69
2018-09-22T09:37:46.543Z,56.79
2018-09-22T09:38:46.610Z,56.95
2018-09-22T09:39:46.670Z,56.66
2018-09-22T09:40:46.742Z,56.25
2018-09-22T09:41:46.810Z,56.25
2018-09-22T09:42:46.870Z,57.47
2018-09-22T09:43:47.010Z,57.47
2018-09-22T09:44:47.006Z,58.63
2018-09-22T09:45:47.093Z,58.98
2018-09-22T09:46:47.141Z,59.75
2018-09-22T09:47:47.205Z,58.70
2018-09-22T09:48:47.274Z,59.37
2018-09-22T09:49:47.342Z,59.82
2018-09-22T09:50:47.413Z,60.08
2018-09-22T09:51:47.482Z,60.75
2018-09-22T09:52:47.544Z,61.23
2018-09-22T09:53:47.610Z,60.37
2018-09-22T09:54:47.723Z,59.79
2018-09-22T09:55:47.751Z,59.60
2018-09-22T09:56:47.818Z,60.75
2018-09-22T09:57:47.879Z,59.79
2018-09-22T09:58:47.942Z,60.85
2018-09-22T09:59:48.016Z,60.37
2018-09-22T10:00:48.174Z,60.46
2018-09-22T10:01:48.142Z,61.04
2018-09-22T10:02:48.210Z,60.46
2018-09-22T10:03:48.278Z,59.89
2018-09-22T10:04:48.343Z,59.99
2018-09-22T10:05:48.422Z,59.99
2018-09-22T10:06:48.482Z,60.08
2018-09-22T10:07:48.542Z,59.69
2018-09-22T10:08:48.611Z,59.89
2018-09-22T10:09:48.675Z,61.04
2018-09-22T10:10:48.754Z,60.24
2018-09-22T10:11:48.860Z,60.63
2018-09-22T10:12:48.874Z,61.01
2018-09-22T10:13:48.942Z,61.20
2018-09-22T10:14:49.007Z,61.40
2018-09-22T10:15:49.186Z,61.30
2018-09-22T10:16:49.143Z,60.72
2018-09-22T10:17:49.206Z,60.53
2018-09-22T10:18:49.275Z,61.58
2018-09-22T10:19:49.339Z,61.30
2018-09-22T10:20:49.423Z,61.01
2018-09-22T10:21:49.479Z,61.20
2018-09-22T10:22:49.539Z,61.97
2018-09-22T10:23:49.603Z,61.71
2018-09-22T10:24:49.710Z,60.46
2018-09-22T10:25:49.743Z,60.72
2018-09-22T10:26:49.811Z,61.20
2018-09-22T10:27:49.867Z,61.11
2018-09-22T10:28:49.994Z,61.87
2018-09-22T10:29:49.999Z,62.74
2018-09-22T10:30:50.175Z,62.64
2018-09-22T10:31:50.131Z,62.45
2018-09-22T10:32:50.199Z,63.02
2018-09-22T10:33:50.264Z,62.84
2018-09-22T10:34:50.331Z,63.51
2018-09-22T10:35:50.404Z,63.79
2018-09-22T10:36:50.472Z,63.89
2018-09-22T10:37:50.827Z,63.32
2018-09-22T10:38:50.847Z,63.89
2018-09-22T10:39:50.724Z,64.18
2018-09-22T10:40:50.736Z,63.89
2018-09-22T10:41:50.799Z,63.79
2018-09-22T10:42:50.856Z,63.89
2018-09-22T10:43:50.923Z,64.66
2018-09-22T10:44:50.988Z,64.95
2018-09-22T10:45:51.060Z,65.14
2018-09-22T10:46:51.128Z,65.43
2018-09-22T10:47:51.188Z,65.72
2018-09-22T10:48:51.252Z,66.10
2018-09-22T10:49:51.316Z,64.85
2018-09-22T10:50:51.392Z,65.14
2018-09-22T10:51:51.456Z,64.56
2018-09-22T10:52:51.608Z,65.72
2018-09-22T10:53:51.594Z,65.62
2018-09-22T10:54:51.651Z,64.85
2018-09-22T10:55:51.721Z,65.53
2018-09-22T10:56:51.784Z,65.53
2018-09-22T10:57:51.845Z,65.05
2018-09-22T10:58:51.909Z,64.76
2018-09-22T10:59:55.350Z,64.47
2018-09-22T11:00:52.049Z,64.25
2018-09-22T11:01:52.113Z,64.72
2018-09-22T11:02:54.585Z,64.72
2018-09-22T11:03:54.941Z,64.92
2018-09-22T11:04:54.776Z,65.11
2018-09-22T11:05:56.276Z,65.40
2018-09-22T11:06:54.254Z,65.11
2018-09-22T11:07:54.057Z,65.78
2018-09-22T11:08:52.590Z,65.97
2018-09-22T11:09:52.629Z,65.40
2018-09-22T11:10:52.697Z,64.76
2018-09-22T11:11:52.786Z,65.05
2018-09-22T11:12:52.829Z,64.43
2018-09-22T11:13:52.893Z,64.95
2018-09-22T11:14:52.961Z,64.92
2018-09-22T11:15:53.025Z,65.88
2018-09-22T11:16:53.449Z,66.07
2018-09-22T11:17:53.154Z,66.36
2018-09-22T11:18:53.226Z,66.55
2018-09-22T11:19:53.285Z,66.93
2018-09-22T11:20:53.350Z,67.13
2018-09-22T11:21:53.413Z,66.36
2018-09-22T11:22:53.502Z,66.46
2018-09-22T11:23:53.546Z,66.93
2018-09-22T11:24:53.614Z,66.30
2018-09-22T11:25:53.681Z,66.00
2018-09-22T11:26:53.780Z,66.58
2018-09-22T11:27:53.818Z,66.26
2018-09-22T11:28:53.882Z,66.26
2018-09-22T11:29:53.945Z,66.46
2018-09-22T11:30:54.011Z,66.87
2018-09-22T11:31:54.070Z,66.68
2018-09-22T11:32:54.250Z,66.46
2018-09-22T11:33:54.198Z,67.22
2018-09-22T11:34:54.269Z,66.49
2018-09-22T11:35:54.330Z,66.74
2018-09-22T11:36:54.394Z,67.25
2018-09-22T11:37:54.466Z,67.45
2018-09-22T11:38:54.534Z,67.54
2018-09-22T11:39:54.593Z,67.45
2018-09-22T11:40:54.658Z,67.64
2018-09-22T11:41:54.722Z,67.25
2018-09-22T11:42:54.794Z,66.58
2018-09-22T11:43:54.858Z,66.61
2018-09-22T11:44:54.921Z,65.46
2018-09-22T11:45:54.986Z,64.79
2018-09-22T11:46:55.046Z,64.34
2018-09-22T11:47:55.142Z,63.76
2018-09-22T11:48:55.178Z,63.95
2018-09-22T11:49:55.243Z,63.60
2018-09-22T11:50:55.310Z,62.80
2018-09-22T11:51:55.435Z,62.74
2018-09-22T11:52:55.446Z,62.74
2018-09-22T11:53:55.678Z,63.41
2018-09-22T11:54:55.573Z,63.70
2018-09-22T11:55:55.639Z,63.18
2018-09-22T11:56:55.702Z,61.94
2018-09-22T11:57:55.794Z,61.61
2018-09-22T11:58:55.839Z,62.87
2018-09-22T11:59:55.899Z,62.29
2018-09-22T12:00:55.971Z,62.00
2018-09-22T12:01:56.072Z,62.58
2018-09-22T12:02:56.236Z,63.35
2018-09-22T12:03:56.163Z,62.68
2018-09-22T12:04:56.230Z,62.77
2018-09-22T12:05:56.311Z,62.38
2018-09-22T12:06:56.363Z,62.84
2018-09-22T12:07:56.432Z,63.02
2018-09-22T12:08:56.499Z,63.51
2018-09-22T12:09:56.556Z,62.68
2018-09-22T12:10:56.620Z,62.64
2018-09-22T12:11:56.691Z,62.35
2018-09-22T12:12:56.759Z,61.78
2018-09-22T12:13:56.832Z,61.78
2018-09-22T12:14:56.884Z,61.87
2018-09-22T12:15:56.948Z,61.94
2018-09-22T12:16:57.022Z,61.84
2018-09-22T12:17:57.193Z,61.94
2018-09-22T12:18:57.144Z,61.75
2018-09-22T12:19:57.211Z,62.99
2018-09-22T12:20:57.275Z,62.90
2018-09-22T12:21:57.340Z,62.42
2018-09-22T12:22:57.415Z,63.09
2018-09-22T12:23:57.480Z,62.64
2018-09-22T12:24:57.536Z,61.78
2018-09-22T12:25:57.606Z,61.87
2018-09-22T12:26:57.668Z,61.87
2018-09-22T12:27:57.740Z,61.68
2018-09-22T12:28:57.808Z,62.35
2018-09-22T12:29:57.868Z,62.26
2018-09-22T12:30:57.928Z,61.78
2018-09-22T12:31:58.008Z,61.78
2018-09-22T12:32:58.064Z,61.58
2018-09-22T12:33:58.132Z,61.68
2018-09-22T12:34:58.188Z,61.97
2018-09-22T12:35:58.256Z,62.16
2018-09-22T12:36:58.320Z,61.78
2018-09-22T12:37:58.392Z,62.64
2018-09-22T12:38:58.460Z,62.68
2018-09-22T12:39:58.521Z,62.00
2018-09-22T12:40:58.580Z,61.91
2018-09-22T12:41:58.650Z,61.84
2018-09-22T12:42:58.717Z,61.55
2018-09-22T12:43:58.785Z,61.16
2018-09-22T12:44:58.844Z,61.07
2018-09-22T12:45:58.954Z,60.52
2018-09-22T12:46:58.972Z,61.49
2018-09-22T12:47:59.045Z,60.72
2018-09-22T12:48:59.109Z,61.10
2018-09-22T12:49:59.176Z,61.58
2018-09-22T12:50:59.237Z,61.29
2018-09-22T12:51:59.301Z,61.29
2018-09-22T12:52:59.401Z,61.39